July,2ND 2022

MET REPORT SMJP 021000Z WIND RWY 11 TDZ 080/2KT VIS RWY 11 TDZ 10KM END 10KM CLD RWY 11 FEW 800FT T23 DP22 QNH 1013HPA QFE RWY 11 1011HPA CB IN CLIMB-OUT TREND NOSIG=

 

METAR SMJP 021000Z 08002KT 9999 FEW008 FEW015CB 23/22 Q1013 NOSIG=

METAR SMZO 021000Z 07004KT 9999 SCT010 SCT030 24/24 Q1013 NOSIG=

METAR SMNI 021000Z 15003KT 9999 FEW015 FEW020CB 24/23 Q1013 NOSIG=